Time,TemperatureF,DewpointF,PressureIn,WindDirection,WindDirectionDegrees,WindSpeedMPH,WindSpeedGustMPH,Humidity,HourlyPrecipIn,Conditions,Clouds,dailyrainin,SolarRadiationWatts/m^2,SoftwareType,DateUTC
2013-07-25 00:22:00,95.0,63.0,-100.00,South,190,8.0,13.0,35,0.00,,,0.00,0.000000,,2013-07-25 07:22:00,
2013-07-25 00:32:00,95.0,63.0,-100.00,South,190,8.0,13.0,35,0.00,,,0.00,0.000000,,2013-07-25 07:32:00,
2013-07-25 00:43:00,95.0,63.0,-100.00,South,190,8.0,13.0,35,0.00,,,0.00,0.000000,,2013-07-25 07:43:00,
2013-07-25 01:12:00,91.0,66.0,-100.00,South,185,4.0,13.0,44,0.00,,,0.00,0.000000,,2013-07-25 08:12:00,
2013-07-25 01:22:00,91.0,66.0,-100.00,South,185,4.0,13.0,44,0.00,,,0.00,0.000000,,2013-07-25 08:22:00,
2013-07-25 01:32:00,91.0,66.0,-100.00,South,185,4.0,13.0,44,0.00,,,0.00,0.000000,,2013-07-25 08:32:00,
2013-07-25 01:44:00,91.0,66.0,-100.00,South,185,4.0,13.0,44,0.00,,,0.00,0.000000,,2013-07-25 08:44:00,
2013-07-25 02:12:00,91.0,63.0,-100.00,SW,215,6.0,10.0,39,0.00,,,0.00,0.000000,,2013-07-25 09:12:00,
2013-07-25 02:22:00,91.0,63.0,-100.00,SW,215,6.0,10.0,39,0.00,,,0.00,0.000000,,2013-07-25 09:22:00,
2013-07-25 02:33:00,91.0,63.0,-100.00,SW,215,6.0,10.0,39,0.00,,,0.00,0.000000,,2013-07-25 09:33:00,
2013-07-25 02:43:00,91.0,63.0,-100.00,SW,215,6.0,10.0,39,0.00,,,0.00,0.000000,,2013-07-25 09:43:00,
2013-07-25 03:12:00,89.0,64.0,-100.00,South,169,6.0,10.0,43,0.00,,,0.00,0.000000,,2013-07-25 10:12:00,
2013-07-25 03:22:00,89.0,64.0,-100.00,South,169,6.0,10.0,43,0.00,,,0.00,0.000000,,2013-07-25 10:22:00,
2013-07-25 03:32:00,89.0,64.0,-100.00,South,169,6.0,10.0,43,0.00,,,0.00,0.000000,,2013-07-25 10:32:00,
2013-07-25 03:42:00,89.0,64.0,-100.00,South,169,6.0,10.0,43,0.00,,,0.00,0.000000,,2013-07-25 10:42:00,
2013-07-25 04:12:00,88.0,63.0,-100.00,SSE,155,5.0,11.0,44,0.00,,,0.00,0.000000,,2013-07-25 11:12:00,
2013-07-25 04:22:00,88.0,63.0,-100.00,SSE,155,5.0,11.0,44,0.00,,,0.00,0.000000,,2013-07-25 11:22:00,
2013-07-25 04:32:00,88.0,63.0,-100.00,SSE,155,5.0,11.0,44,0.00,,,0.00,0.000000,,2013-07-25 11:32:00,
2013-07-25 04:43:00,88.0,63.0,-100.00,SSE,155,5.0,11.0,44,0.00,,,0.00,0.000000,,2013-07-25 11:43:00,
2013-07-25 05:22:00,87.0,61.0,-100.00,SSE,154,5.0,9.0,42,0.00,,,0.00,0.000000,,2013-07-25 12:22:00,
2013-07-25 05:32:00,87.0,61.0,-100.00,SSE,154,5.0,9.0,42,0.00,,,0.00,0.000000,,2013-07-25 12:32:00,
2013-07-25 05:44:00,87.0,61.0,-100.00,SSE,154,5.0,9.0,42,0.00,,,0.00,0.000000,,2013-07-25 12:44:00,
2013-07-25 06:22:00,86.0,60.0,-100.00,SSE,159,6.0,9.0,41,0.00,,,0.00,0.000000,,2013-07-25 13:22:00,
2013-07-25 06:32:00,86.0,60.0,-100.00,SSE,159,6.0,9.0,41,0.00,,,0.00,0.000000,,2013-07-25 13:32:00,
2013-07-25 06:42:00,86.0,60.0,-100.00,SSE,159,6.0,9.0,41,0.00,,,0.00,0.000000,,2013-07-25 13:42:00,
2013-07-25 07:22:00,85.0,62.0,-100.00,South,176,4.0,9.0,46,0.00,,,0.00,25.000000,,2013-07-25 14:22:00,
2013-07-25 07:33:00,85.0,62.0,-100.00,South,176,4.0,9.0,46,0.00,,,0.00,25.000000,,2013-07-25 14:33:00,
2013-07-25 07:43:00,85.0,62.0,-100.00,South,176,4.0,9.0,46,0.00,,,0.00,25.000000,,2013-07-25 14:43:00,
2013-07-25 08:12:00,89.0,62.0,-100.00,SSW,203,2.0,6.0,41,0.00,,,-99.99,125.000000,,2013-07-25 15:12:00,
2013-07-25 08:22:00,89.0,62.0,-100.00,SSW,203,2.0,6.0,41,0.00,,,-99.99,125.000000,,2013-07-25 15:22:00,
2013-07-25 08:32:00,89.0,62.0,-100.00,SSW,203,2.0,6.0,41,0.00,,,-99.99,125.000000,,2013-07-25 15:32:00,
2013-07-25 08:43:00,89.0,62.0,-100.00,SSW,203,2.0,6.0,41,0.00,,,-99.99,125.000000,,2013-07-25 15:43:00,
2013-07-25 09:22:00,96.0,58.0,-100.00,South,171,9.0,15.0,28,0.00,,,0.00,382.000000,,2013-07-25 16:22:00,
2013-07-25 09:33:00,96.0,58.0,-100.00,South,171,9.0,15.0,28,0.00,,,0.00,382.000000,,2013-07-25 16:33:00,
2013-07-25 09:45:00,96.0,58.0,-100.00,South,171,9.0,15.0,28,0.00,,,0.00,382.000000,,2013-07-25 16:45:00,
2013-07-25 10:22:00,95.0,60.0,-100.00,SE,144,7.0,16.0,32,0.00,,,0.00,396.000000,,2013-07-25 17:22:00,
2013-07-25 10:32:00,95.0,60.0,-100.00,SE,144,7.0,16.0,32,0.00,,,0.00,396.000000,,2013-07-25 17:32:00,
2013-07-25 10:43:00,95.0,60.0,-100.00,SE,144,7.0,16.0,32,0.00,,,0.00,396.000000,,2013-07-25 17:43:00,
2013-07-25 11:22:00,96.0,65.0,-100.00,SSE,147,9.0,16.0,37,0.00,,,0.00,510.000000,,2013-07-25 18:22:00,
2013-07-25 11:33:00,96.0,65.0,-100.00,SSE,147,9.0,16.0,37,0.00,,,0.00,510.000000,,2013-07-25 18:33:00,
2013-07-25 11:42:00,96.0,65.0,-100.00,SSE,147,9.0,16.0,37,0.00,,,0.00,510.000000,,2013-07-25 18:42:00,
2013-07-25 12:12:00,92.0,67.0,-100.00,SSE,164,9.0,19.0,44,0.00,,,0.00,416.000000,,2013-07-25 19:12:00,
2013-07-25 12:22:00,92.0,67.0,-100.00,SSE,164,9.0,19.0,44,0.00,,,0.00,416.000000,,2013-07-25 19:22:00,
2013-07-25 12:33:00,92.0,67.0,-100.00,SSE,164,9.0,19.0,44,0.00,,,0.00,416.000000,,2013-07-25 19:33:00,
2013-07-25 12:42:00,92.0,67.0,-100.00,SSE,164,9.0,19.0,44,0.00,,,0.00,416.000000,,2013-07-25 19:42:00,
2013-07-25 13:12:00,92.0,67.0,-100.00,South,176,8.0,17.0,44,0.00,,,0.00,364.000000,,2013-07-25 20:12:00,
2013-07-25 13:22:00,92.0,67.0,-100.00,South,176,8.0,17.0,44,0.00,,,0.00,364.000000,,2013-07-25 20:22:00,
2013-07-25 13:32:00,92.0,67.0,-100.00,South,176,8.0,17.0,44,0.00,,,0.00,364.000000,,2013-07-25 20:32:00,
2013-07-25 13:43:00,92.0,67.0,-100.00,South,176,8.0,17.0,44,0.00,,,0.00,364.000000,,2013-07-25 20:43:00,
2013-07-25 14:12:00,94.0,67.0,-100.00,SSE,154,8.0,14.0,41,0.00,,,0.00,397.000000,,2013-07-25 21:12:00,
2013-07-25 14:22:00,94.0,67.0,-100.00,SSE,154,8.0,14.0,41,0.00,,,0.00,397.000000,,2013-07-25 21:22:00,
2013-07-25 14:32:00,94.0,67.0,-100.00,SSE,154,8.0,14.0,41,0.00,,,0.00,397.000000,,2013-07-25 21:32:00,
2013-07-25 14:44:00,94.0,67.0,-100.00,SSE,154,8.0,14.0,41,0.00,,,0.00,397.000000,,2013-07-25 21:44:00,
2013-07-25 15:12:00,99.0,65.0,-100.00,SSE,159,9.0,16.0,33,0.00,,,0.00,775.000000,,2013-07-25 22:12:00,
2013-07-25 15:22:00,99.0,65.0,-100.00,SSE,159,9.0,16.0,33,0.00,,,0.00,775.000000,,2013-07-25 22:22:00,
2013-07-25 15:32:00,99.0,65.0,-100.00,SSE,159,9.0,16.0,33,0.00,,,0.00,775.000000,,2013-07-25 22:32:00,
2013-07-25 15:43:00,99.0,65.0,-100.00,SSE,159,9.0,16.0,33,0.00,,,0.00,775.000000,,2013-07-25 22:43:00,
2013-07-25 16:12:00,98.0,66.0,-100.00,SSE,160,8.0,16.0,35,0.00,,,0.00,515.000000,,2013-07-25 23:12:00,
2013-07-25 16:22:00,98.0,66.0,-100.00,SSE,160,8.0,16.0,35,0.00,,,0.00,515.000000,,2013-07-25 23:22:00,
2013-07-25 16:32:00,98.0,66.0,-100.00,SSE,160,8.0,16.0,35,0.00,,,0.00,515.000000,,2013-07-25 23:32:00,
2013-07-25 16:43:00,98.0,66.0,-100.00,SSE,160,8.0,16.0,35,0.00,,,0.00,515.000000,,2013-07-25 23:43:00,
2013-07-25 17:12:00,102.0,65.0,-100.00,SE,140,6.0,11.0,30,0.00,,,0.00,461.000000,,2013-07-26 00:12:00,
2013-07-25 17:22:00,102.0,65.0,-100.00,SE,140,6.0,11.0,30,0.00,,,0.00,461.000000,,2013-07-26 00:22:00,
2013-07-25 17:32:00,102.0,65.0,-100.00,SE,140,6.0,11.0,30,0.00,,,0.00,461.000000,,2013-07-26 00:32:00,
2013-07-25 17:43:00,102.0,65.0,-100.00,SE,140,6.0,11.0,30,0.00,,,0.00,461.000000,,2013-07-26 00:43:00,
2013-07-25 18:22:00,102.0,66.0,-100.00,SSW,200,6.0,14.0,31,0.00,,,0.00,411.000000,,2013-07-26 01:22:00,
2013-07-25 18:32:00,102.0,66.0,-100.00,SSW,200,6.0,14.0,31,0.00,,,0.00,411.000000,,2013-07-26 01:32:00,
2013-07-25 18:43:00,102.0,66.0,-100.00,SSW,200,6.0,14.0,31,0.00,,,0.00,411.000000,,2013-07-26 01:43:00,
2013-07-25 19:12:00,100.0,67.0,-100.00,SE,142,6.0,10.0,34,0.00,,,0.00,216.000000,,2013-07-26 02:12:00,
2013-07-25 19:22:00,100.0,67.0,-100.00,SE,142,6.0,10.0,34,0.00,,,0.00,216.000000,,2013-07-26 02:22:00,
2013-07-25 19:32:00,100.0,67.0,-100.00,SE,142,6.0,10.0,34,0.00,,,0.00,216.000000,,2013-07-26 02:32:00,
2013-07-25 19:43:00,100.0,67.0,-100.00,SE,142,6.0,10.0,34,0.00,,,0.00,216.000000,,2013-07-26 02:43:00,
2013-07-25 20:12:00,96.0,65.0,-100.00,SSE,166,4.0,7.0,37,0.00,,,0.00,39.000000,,2013-07-26 03:12:00,
2013-07-25 20:22:00,96.0,65.0,-100.00,SSE,166,4.0,7.0,37,0.00,,,0.00,39.000000,,2013-07-26 03:22:00,
2013-07-25 20:32:00,96.0,65.0,-100.00,SSE,166,4.0,7.0,37,0.00,,,0.00,39.000000,,2013-07-26 03:32:00,
2013-07-25 20:43:00,96.0,65.0,-100.00,SSE,166,4.0,7.0,37,0.00,,,0.00,39.000000,,2013-07-26 03:43:00,
2013-07-25 21:12:00,94.0,66.0,-100.00,SSE,150,3.0,7.0,40,0.00,,,0.00,0.000000,,2013-07-26 04:12:00,
2013-07-25 21:22:00,94.0,66.0,-100.00,SSE,150,3.0,7.0,40,0.00,,,0.00,0.000000,,2013-07-26 04:22:00,
2013-07-25 21:32:00,94.0,66.0,-100.00,SSE,150,3.0,7.0,40,0.00,,,0.00,0.000000,,2013-07-26 04:32:00,
2013-07-25 21:42:00,94.0,66.0,-100.00,SSE,150,3.0,7.0,40,0.00,,,0.00,0.000000,,2013-07-26 04:42:00,
2013-07-25 22:22:00,92.0,66.0,-100.00,South,173,4.0,6.0,43,0.00,,,0.00,0.000000,,2013-07-26 05:22:00,
2013-07-25 22:32:00,92.0,66.0,-100.00,South,173,4.0,6.0,43,0.00,,,0.00,0.000000,,2013-07-26 05:32:00,
2013-07-25 22:43:00,92.0,66.0,-100.00,South,173,4.0,6.0,43,0.00,,,0.00,0.000000,,2013-07-26 05:43:00,
2013-07-25 23:12:00,93.0,66.0,-100.00,South,172,6.0,8.0,41,0.00,,,0.00,0.000000,,2013-07-26 06:12:00,
2013-07-25 23:22:00,93.0,66.0,-100.00,South,172,6.0,8.0,41,0.00,,,0.00,0.000000,,2013-07-26 06:22:00,
2013-07-25 23:33:00,93.0,66.0,-100.00,South,172,6.0,8.0,41,0.00,,,0.00,0.000000,,2013-07-26 06:33:00,
2013-07-25 23:43:00,93.0,66.0,-100.00,South,172,6.0,8.0,41,0.00,,,0.00,0.000000,,2013-07-26 06:43:00,